Norfolk, Virginia
Traffic Map
Current Weather Conditions
Norfolk, Virginia
Overcast Light Rain
Overcast
12°
Feels Like: 12°
Wind Chill: 12° Ceiling: 6000
Heat Index: 12° Visibility: 8mi
Dew Point: 10° Wind: 5mph
Humidity: 86% Direction: 260° (W)
Pressure: 29.68in Gusts: 0mph
Raw Report DataKORF 061451Z AUTO 26004KT 8SM -RA BR FEW009 OVC060 12/10 A2968 RMK AO2 SLP051 P0008 60026 T01220100 51008 TSNO
Traffic Incident Summary
Active as of:
Severity:
Category:
InformationThere was an issue retrieving the traffic information for this location. Please try a different location or try again shortly.
Advertisements
Track Severe Weather on mobile